Orbital elements of COSMOS 2251 DEB
| Launched | 15 June 1993 |
| Flight ended | – |
| Launch site | Plesetsk Missile and Space Complex, Russia |
| Owner | Commonwealth of Independent States (former USSR) |
| NORAD ID | 34997 |
| Date fetched |
Epoch osculation |
Inc. [°] |
Ecc. | RA asc node [hr] |
Arg Peri. [°] |
Mean anom [°] |
Mean motion [rev/day] |
Abs. mag |
| Date fetched |
Epoch osculation |
Inc. [°] |
Ecc. | RA asc node [hr] |
Arg Peri. [°] |
Mean anom [°] |
Mean motion [rev/day] |
Abs. mag |
| 2026 May 03 17:57 | 2026 Apr 30 12:21:11 | 73.8808 | 0.00904 | 3.3059 | 356.0769 | 3.9668 | 14.47129 | – |
| 2026 May 02 17:57 | 2026 Apr 30 12:21:11 | 73.8808 | 0.00904 | 3.3059 | 356.0769 | 3.9668 | 14.47129 | – |
| 2026 May 01 17:56 | 2026 Apr 30 12:21:11 | 73.8808 | 0.00904 | 3.3059 | 356.0769 | 3.9668 | 14.47129 | – |
| 2026 Apr 30 17:56 | 2026 Apr 30 12:21:11 | 73.8808 | 0.00904 | 3.3059 | 356.0769 | 3.9668 | 14.47129 | – |
| 2026 Apr 29 17:57 | 2026 Apr 23 02:49:23 | 73.8811 | 0.00903 | 4.2366 | 11.1496 | 3.9668 | 14.47129 | – |
| 2026 Apr 28 17:56 | 2026 Apr 23 02:49:23 | 73.8811 | 0.00903 | 4.2366 | 11.1496 | 3.9668 | 14.47129 | – |
| 2026 Apr 27 17:58 | 2026 Apr 23 02:49:23 | 73.8811 | 0.00903 | 4.2366 | 11.1496 | 3.9668 | 14.47129 | – |
| 2026 Apr 26 17:58 | 2026 Apr 23 02:49:23 | 73.8811 | 0.00903 | 4.2366 | 11.1496 | 3.9668 | 14.47129 | – |
| 2026 Apr 25 17:58 | 2026 Apr 23 02:49:23 | 73.8811 | 0.00903 | 4.2366 | 11.1496 | 3.9668 | 14.47129 | – |
| 2026 Apr 24 17:59 | 2026 Apr 23 02:49:23 | 73.8811 | 0.00903 | 4.2366 | 11.1496 | 3.9668 | 14.47129 | – |
| 2026 Apr 23 17:57 | 2026 Apr 19 04:14:50 | 73.8798 | 0.00903 | 4.7323 | 19.4529 | 3.9668 | 14.47129 | – |
| 2026 Apr 22 17:57 | 2026 Apr 19 04:14:50 | 73.8798 | 0.00903 | 4.7323 | 19.4529 | 3.9668 | 14.47129 | – |
| 2026 Apr 21 17:57 | 2026 Apr 19 04:14:50 | 73.8798 | 0.00903 | 4.7323 | 19.4529 | 3.9668 | 14.47129 | – |
| 2026 Apr 20 17:57 | 2026 Apr 19 04:14:50 | 73.8798 | 0.00903 | 4.7323 | 19.4529 | 3.9668 | 14.47129 | – |
| 2026 Apr 19 17:58 | 2026 Apr 19 04:14:50 | 73.8798 | 0.00903 | 4.7323 | 19.4529 | 3.9668 | 14.47129 | – |
| 2026 Apr 18 17:56 | 2026 Apr 11 05:25:50 | 73.8780 | 0.00898 | 5.7326 | 35.9348 | 3.9668 | 14.47129 | – |
| 2026 Apr 16 17:57 | 2026 Apr 11 05:25:50 | 73.8780 | 0.00898 | 5.7326 | 35.9348 | 3.9668 | 14.47129 | – |
| 2026 Apr 14 17:57 | 2026 Apr 11 05:25:50 | 73.8780 | 0.00898 | 5.7326 | 35.9348 | 3.9668 | 14.47129 | – |
| 2026 Apr 13 17:57 | 2026 Apr 11 05:25:50 | 73.8780 | 0.00898 | 5.7326 | 35.9348 | 3.9668 | 14.47129 | – |
| 2026 Apr 12 17:57 | 2026 Apr 08 06:04:48 | 73.8780 | 0.00896 | 6.1065 | 42.1747 | 3.9668 | 14.47129 | – |
| 2026 Apr 11 17:57 | 2026 Apr 08 06:04:48 | 73.8780 | 0.00896 | 6.1065 | 42.1747 | 3.9668 | 14.47129 | – |
| 2026 Apr 10 17:58 | 2026 Apr 08 06:04:48 | 73.8780 | 0.00896 | 6.1065 | 42.1747 | 3.9668 | 14.47129 | – |
| 2026 Apr 09 18:01 | 2026 Apr 08 06:04:48 | 73.8780 | 0.00896 | 6.1065 | 42.1747 | 3.9668 | 14.47129 | – |
| 2026 Apr 08 17:57 | 2026 Apr 08 06:04:48 | 73.8780 | 0.00896 | 6.1065 | 42.1747 | 3.9668 | 14.47129 | – |
| 2026 Apr 07 17:57 | 2026 Apr 02 07:22:26 | 73.8769 | 0.00895 | 6.8545 | 54.7088 | 3.9668 | 14.47129 | – |
| 2026 Apr 06 17:57 | 2026 Apr 02 07:22:26 | 73.8769 | 0.00895 | 6.8545 | 54.7088 | 3.9668 | 14.47129 | – |